createdAt,value
2022-09-23T00:01:36.426Z,61.40
2022-09-23T00:04:05.511Z,61.30
2022-09-23T00:06:32.319Z,61.40
2022-09-23T00:08:59.151Z,61.50
2022-09-23T00:11:28.198Z,61.50
2022-09-23T00:13:58.371Z,61.40
2022-09-23T00:16:28.716Z,61.50
2022-09-23T00:18:55.808Z,61.70
2022-09-23T00:21:23.001Z,61.80
2022-09-23T00:23:49.987Z,61.80
2022-09-23T00:26:19.147Z,61.90
2022-09-23T00:28:46.137Z,61.90
2022-09-23T00:31:20.239Z,61.90
2022-09-23T00:33:47.176Z,61.80
2022-09-23T00:36:15.716Z,61.80
2022-09-23T00:38:44.093Z,62.00
2022-09-23T00:41:11.938Z,62.10
2022-09-23T00:43:46.889Z,62.20
2022-09-23T00:46:31.236Z,62.40
2022-09-23T00:49:06.574Z,62.10
2022-09-23T00:51:37.799Z,62.30
2022-09-23T00:54:06.597Z,62.30
2022-09-23T00:56:34.942Z,62.30
2022-09-23T00:59:02.299Z,62.30
2022-09-23T01:01:32.062Z,62.40
2022-09-23T01:03:59.238Z,62.60
2022-09-23T01:06:29.439Z,62.70
2022-09-23T01:08:56.601Z,63.00
2022-09-23T01:11:47.060Z,63.00
2022-09-23T01:14:19.886Z,63.00
2022-09-23T01:17:00.832Z,62.70
2022-09-23T01:19:36.923Z,62.60
2022-09-23T01:22:22.432Z,62.50
2022-09-23T01:25:26.412Z,62.80
2022-09-23T01:27:59.097Z,62.60
2022-09-23T01:30:42.943Z,62.50
2022-09-23T01:33:09.971Z,62.70
2022-09-23T01:35:50.429Z,62.60
2022-09-23T01:38:31.198Z,63.00
2022-09-23T01:41:09.918Z,62.90
2022-09-23T01:44:02.516Z,63.00
2022-09-23T01:46:39.857Z,63.10
2022-09-23T01:49:20.045Z,63.40
2022-09-23T01:51:53.038Z,63.60
2022-09-23T01:54:26.254Z,63.70
2022-09-23T01:57:11.551Z,63.70
2022-09-23T01:59:42.474Z,63.70
2022-09-23T02:02:21.361Z,63.70
2022-09-23T02:04:54.307Z,63.80
2022-09-23T02:07:28.157Z,63.90
2022-09-23T02:10:11.217Z,64.80
2022-09-23T02:12:40.603Z,64.30
2022-09-23T02:15:22.497Z,64.30
2022-09-23T02:18:05.459Z,64.40
2022-09-23T02:20:39.425Z,64.60
2022-09-23T02:23:13.269Z,64.60
2022-09-23T02:25:51.014Z,64.80
2022-09-23T02:28:34.223Z,64.80
2022-09-23T02:31:12.066Z,64.90
2022-09-23T02:34:04.810Z,64.80
2022-09-23T02:36:50.159Z,65.60
2022-09-23T02:39:20.590Z,64.60
2022-09-23T02:42:05.023Z,64.60
2022-09-23T02:44:32.945Z,64.70
2022-09-23T02:47:00.582Z,64.90
2022-09-23T02:49:29.568Z,65.00
2022-09-23T02:51:59.922Z,65.00
2022-09-23T02:54:29.320Z,65.00
2022-09-23T02:56:57.412Z,65.00
2022-09-23T02:59:24.563Z,64.90
2022-09-23T03:02:17.437Z,65.00
2022-09-23T03:05:14.720Z,65.20
2022-09-23T03:08:15.100Z,65.10
2022-09-23T03:10:48.914Z,65.30
2022-09-23T03:13:47.034Z,65.40
2022-09-23T03:16:31.137Z,65.60
2022-09-23T03:19:21.455Z,65.50
2022-09-23T03:21:56.909Z,65.70
2022-09-23T03:24:25.261Z,65.80
2022-09-23T03:26:54.319Z,65.90
2022-09-23T03:29:22.880Z,66.00
2022-09-23T03:31:49.699Z,66.10
2022-09-23T03:34:21.510Z,66.20
2022-09-23T03:37:07.485Z,66.50
2022-09-23T03:39:40.376Z,66.50
2022-09-23T03:42:17.077Z,66.50
2022-09-23T03:44:45.954Z,66.70
2022-09-23T03:47:14.698Z,66.80
2022-09-23T03:49:44.670Z,66.70
2022-09-23T03:52:11.640Z,66.90
2022-09-23T03:54:38.289Z,66.90
2022-09-23T03:57:05.175Z,67.00
2022-09-23T03:59:31.962Z,67.20
2022-09-23T04:01:59.689Z,67.20
2022-09-23T04:04:32.380Z,67.30
2022-09-23T04:06:59.083Z,67.40
2022-09-23T04:09:26.307Z,67.40
2022-09-23T04:11:53.874Z,67.50
2022-09-23T04:14:22.067Z,67.50
2022-09-23T04:16:49.456Z,67.60
2022-09-23T04:19:17.023Z,67.70
2022-09-23T04:21:47.250Z,67.80
2022-09-23T04:24:14.873Z,67.90
2022-09-23T04:26:44.272Z,67.90
2022-09-23T04:29:11.562Z,67.90
2022-09-23T04:31:38.630Z,67.90
2022-09-23T04:34:05.487Z,68.00
2022-09-23T04:36:32.998Z,68.10
2022-09-23T04:38:59.857Z,68.20
2022-09-23T04:41:26.665Z,69.10
2022-09-23T04:43:53.748Z,68.30
2022-09-23T04:46:20.961Z,68.30
2022-09-23T04:48:47.809Z,68.30
2022-09-23T04:51:20.179Z,68.30
2022-09-23T04:53:48.863Z,68.50
2022-09-23T04:56:18.286Z,68.40
2022-09-23T04:58:46.114Z,68.40
2022-09-23T05:01:27.376Z,68.40
2022-09-23T05:03:57.955Z,68.50
2022-09-23T05:06:25.303Z,68.50
2022-09-23T05:08:54.502Z,68.50
2022-09-23T05:11:21.949Z,68.50
2022-09-23T05:13:50.580Z,68.60
2022-09-23T05:16:18.456Z,68.70
2022-09-23T05:18:46.662Z,68.70
2022-09-23T05:21:15.376Z,68.70
2022-09-23T05:23:48.753Z,68.80
2022-09-23T05:26:16.142Z,68.80
2022-09-23T05:28:42.916Z,68.80
2022-09-23T05:31:19.758Z,68.80
2022-09-23T05:33:57.445Z,68.90
2022-09-23T05:36:25.523Z,69.00
2022-09-23T05:38:52.708Z,68.90
2022-09-23T05:41:23.043Z,68.90
2022-09-23T05:43:54.365Z,69.00
2022-09-23T05:46:42.843Z,69.00
2022-09-23T05:49:12.714Z,69.00
2022-09-23T05:51:39.491Z,69.10
2022-09-23T05:54:09.491Z,69.00
2022-09-23T05:56:37.422Z,69.10
2022-09-23T05:59:05.154Z,69.10
2022-09-23T06:01:35.350Z,69.10
2022-09-23T06:04:04.782Z,69.10
2022-09-23T06:06:35.182Z,69.30
2022-09-23T06:09:02.402Z,69.30
2022-09-23T06:11:34.955Z,69.20
2022-09-23T06:14:02.990Z,69.30
2022-09-23T06:16:32.414Z,69.20
2022-09-23T06:19:05.211Z,69.40
2022-09-23T06:21:34.798Z,69.30
2022-09-23T06:24:02.776Z,69.40
2022-09-23T06:26:32.829Z,69.40
2022-09-23T06:29:01.576Z,69.40
2022-09-23T06:31:29.108Z,69.50
2022-09-23T06:34:12.527Z,69.50
2022-09-23T06:36:45.515Z,69.50
2022-09-23T06:39:14.374Z,69.50
2022-09-23T06:41:41.127Z,69.40
2022-09-23T06:44:08.044Z,69.50
2022-09-23T06:46:36.957Z,69.50
2022-09-23T06:49:03.887Z,69.50
2022-09-23T06:51:30.703Z,69.40
2022-09-23T06:53:57.565Z,69.40
2022-09-23T06:56:24.763Z,69.40
2022-09-23T06:58:52.575Z,69.50
2022-09-23T07:01:19.829Z,69.50
2022-09-23T07:03:48.584Z,69.50
2022-09-23T07:06:16.893Z,69.50
2022-09-23T07:08:47.114Z,69.60
2022-09-23T07:11:15.729Z,69.50
2022-09-23T07:13:42.978Z,69.50
2022-09-23T07:16:13.665Z,69.50
2022-09-23T07:18:41.118Z,69.50
2022-09-23T07:21:16.178Z,69.50
2022-09-23T07:23:47.540Z,69.50
2022-09-23T07:26:15.868Z,69.50
2022-09-23T07:28:42.907Z,69.60
2022-09-23T07:31:28.360Z,69.50
2022-09-23T07:34:02.722Z,69.40
2022-09-23T07:36:32.902Z,69.30
2022-09-23T07:39:03.400Z,69.30
2022-09-23T07:41:31.949Z,69.30
2022-09-23T07:44:00.821Z,69.30
2022-09-23T07:46:30.585Z,69.20
2022-09-23T07:48:59.604Z,69.50
2022-09-23T07:51:34.750Z,69.30
2022-09-23T07:54:03.156Z,69.10
2022-09-23T07:56:30.852Z,68.60
2022-09-23T07:59:00.928Z,68.10
2022-09-23T08:01:31.614Z,67.90
2022-09-23T08:04:01.171Z,67.80
2022-09-23T08:06:28.316Z,67.50
2022-09-23T08:08:58.304Z,67.30
2022-09-23T08:11:25.907Z,66.80
2022-09-23T08:13:53.371Z,66.50
2022-09-23T08:16:21.805Z,66.10
2022-09-23T08:18:48.705Z,66.00
2022-09-23T08:21:20.676Z,65.90
2022-09-23T08:23:47.931Z,65.70
2022-09-23T08:26:21.819Z,65.40
2022-09-23T08:28:50.070Z,65.30
2022-09-23T08:31:17.028Z,65.10
2022-09-23T08:33:43.796Z,65.00
2022-09-23T08:36:10.898Z,65.10
2022-09-23T08:38:37.603Z,65.00
2022-09-23T08:41:21.007Z,65.20
2022-09-23T08:43:56.498Z,64.80
2022-09-23T08:46:31.353Z,64.70
2022-09-23T08:49:00.163Z,64.60
2022-09-23T08:51:35.875Z,64.50
2022-09-23T08:54:02.773Z,64.20
2022-09-23T08:56:31.114Z,64.10
2022-09-23T08:59:49.329Z,64.00
2022-09-23T09:02:20.157Z,64.10
2022-09-23T09:04:52.600Z,63.90
2022-09-23T09:07:38.815Z,63.60
2022-09-23T09:10:16.705Z,63.50
2022-09-23T09:12:44.955Z,63.60
2022-09-23T09:15:24.666Z,63.50
2022-09-23T09:18:11.561Z,63.30
2022-09-23T09:20:45.744Z,63.10
2022-09-23T09:23:28.690Z,62.60
2022-09-23T09:25:58.904Z,62.10
2022-09-23T09:28:26.606Z,62.20
2022-09-23T09:31:01.266Z,62.00
2022-09-23T09:33:36.916Z,62.00
2022-09-23T09:36:23.747Z,61.90
2022-09-23T09:38:55.503Z,61.90
2022-09-23T09:41:26.012Z,61.70
2022-09-23T09:43:57.883Z,61.60
2022-09-23T09:46:45.488Z,61.30
2022-09-23T09:49:24.479Z,61.40
2022-09-23T09:52:16.817Z,61.10
2022-09-23T09:54:44.364Z,60.90
2022-09-23T09:57:35.837Z,60.80
2022-09-23T10:00:20.229Z,60.50
2022-09-23T10:02:47.327Z,60.00
2022-09-23T10:05:32.847Z,59.50
2022-09-23T10:08:24.757Z,59.70
2022-09-23T10:10:55.383Z,59.80
2022-09-23T10:13:26.498Z,59.60
2022-09-23T10:15:54.955Z,59.30
2022-09-23T10:18:38.561Z,59.00
2022-09-23T10:21:17.700Z,58.70
2022-09-23T10:23:54.452Z,58.50
2022-09-23T10:26:42.820Z,58.30
2022-09-23T10:29:30.854Z,58.10
2022-09-23T10:32:20.525Z,58.10
2022-09-23T10:34:52.135Z,57.80
2022-09-23T10:37:25.642Z,57.70
2022-09-23T10:40:11.029Z,57.60
2022-09-23T10:43:11.217Z,57.80
2022-09-23T10:46:05.228Z,57.70
2022-09-23T10:48:46.955Z,57.40
2022-09-23T10:51:15.676Z,57.30
2022-09-23T10:54:21.304Z,57.40
2022-09-23T10:57:02.335Z,57.40
2022-09-23T11:00:23.611Z,57.00
2022-09-23T11:03:24.491Z,57.10
2022-09-23T11:05:56.838Z,56.70
2022-09-23T11:08:46.212Z,56.10
2022-09-23T11:11:34.296Z,56.00
2022-09-23T11:14:42.072Z,55.70
2022-09-23T11:17:31.836Z,56.30
2022-09-23T11:20:00.328Z,56.00
2022-09-23T11:22:54.935Z,55.60
2022-09-23T11:25:47.289Z,55.50
2022-09-23T11:28:23.368Z,55.40
2022-09-23T11:31:27.316Z,55.20
2022-09-23T11:34:52.724Z,55.20
2022-09-23T11:37:26.340Z,55.10
2022-09-23T11:40:13.763Z,54.80
2022-09-23T11:43:04.606Z,55.10
2022-09-23T11:45:36.647Z,55.20
2022-09-23T11:48:16.037Z,54.60
2022-09-23T11:50:48.659Z,54.70
2022-09-23T11:53:57.740Z,54.70
2022-09-23T11:56:45.970Z,54.70
2022-09-23T11:59:40.536Z,53.50
2022-09-23T12:02:23.840Z,53.30
2022-09-23T12:05:06.820Z,53.60
2022-09-23T12:07:48.004Z,53.70
2022-09-23T12:10:19.041Z,53.30
2022-09-23T12:13:02.543Z,52.80
2022-09-23T12:15:48.148Z,52.80
2022-09-23T12:18:37.122Z,53.40
2022-09-23T12:21:49.714Z,53.60
2022-09-23T12:24:41.743Z,53.50
2022-09-23T12:27:18.560Z,53.40
2022-09-23T12:29:56.356Z,53.80
2022-09-23T12:32:24.713Z,53.10
2022-09-23T12:34:56.707Z,52.70
2022-09-23T12:37:31.782Z,52.70
2022-09-23T12:40:01.900Z,52.70
2022-09-23T12:42:31.293Z,52.40
2022-09-23T12:45:38.789Z,52.20
2022-09-23T12:48:43.453Z,52.70
2022-09-23T12:51:17.373Z,53.00
2022-09-23T12:53:56.700Z,53.00
2022-09-23T12:56:43.417Z,52.90
2022-09-23T12:59:17.297Z,52.50
2022-09-23T13:01:44.565Z,52.60
2022-09-23T13:05:03.539Z,52.40
2022-09-23T13:07:34.937Z,52.30
2022-09-23T13:10:27.253Z,52.30
2022-09-23T13:12:55.846Z,52.50
2022-09-23T13:15:33.059Z,53.50
2022-09-23T13:18:18.736Z,52.60
2022-09-23T13:20:53.670Z,52.40
2022-09-23T13:23:27.756Z,52.30
2022-09-23T13:25:58.452Z,52.40
2022-09-23T13:28:53.799Z,52.50
2022-09-23T13:31:21.364Z,52.70
2022-09-23T13:33:52.708Z,52.70
2022-09-23T13:36:21.181Z,52.60
2022-09-23T13:38:48.372Z,52.70
2022-09-23T13:41:24.255Z,52.70
2022-09-23T13:43:53.925Z,53.00
2022-09-23T13:46:23.765Z,53.10
2022-09-23T13:48:55.149Z,53.30
2022-09-23T13:51:34.018Z,53.40
2022-09-23T13:54:03.530Z,53.40
2022-09-23T13:56:36.593Z,53.50
2022-09-23T13:59:28.477Z,53.60
2022-09-23T14:02:16.121Z,53.60
2022-09-23T14:04:43.292Z,53.60
2022-09-23T14:07:14.870Z,53.80
2022-09-23T14:09:49.947Z,53.70
2022-09-23T14:12:22.162Z,53.80
2022-09-23T14:14:51.924Z,53.80
2022-09-23T14:17:22.921Z,54.00
2022-09-23T14:19:50.528Z,54.00
2022-09-23T14:22:31.192Z,54.00
2022-09-23T14:24:59.367Z,54.20
2022-09-23T14:27:33.172Z,55.00
2022-09-23T14:30:02.680Z,54.40
2022-09-23T14:32:30.441Z,54.50
2022-09-23T14:35:00.191Z,54.70
2022-09-23T14:37:57.360Z,54.80
2022-09-23T14:40:32.992Z,55.00
2022-09-23T14:43:09.196Z,55.20
2022-09-23T14:45:39.750Z,55.10
2022-09-23T14:48:16.232Z,55.50
2022-09-23T14:51:00.724Z,55.60
2022-09-23T14:53:33.643Z,55.70
2022-09-23T14:56:06.155Z,55.90
2022-09-23T14:58:55.756Z,56.20
2022-09-23T15:01:34.746Z,56.30
2022-09-23T15:04:30.399Z,56.70
2022-09-23T15:07:05.903Z,56.90
2022-09-23T15:09:43.653Z,57.40
2022-09-23T15:12:17.192Z,57.50
2022-09-23T15:14:50.483Z,57.70
2022-09-23T15:17:25.821Z,58.00
2022-09-23T15:20:05.567Z,58.30
2022-09-23T15:22:42.495Z,58.70
2022-09-23T15:25:25.624Z,59.00
2022-09-23T15:28:10.452Z,59.40
2022-09-23T15:30:38.219Z,59.50
2022-09-23T15:33:05.883Z,59.60
2022-09-23T15:35:33.456Z,59.80
2022-09-23T15:38:02.215Z,60.10
2022-09-23T15:40:34.282Z,60.30
2022-09-23T15:43:10.575Z,60.50
2022-09-23T15:45:42.992Z,60.60
2022-09-23T15:48:16.223Z,60.80
2022-09-23T15:50:45.546Z,60.90
2022-09-23T15:53:17.497Z,61.00
2022-09-23T15:55:45.235Z,60.80
2022-09-23T15:58:12.295Z,60.80
2022-09-23T16:00:39.376Z,61.60
2022-09-23T16:03:06.660Z,60.80
2022-09-23T16:05:37.858Z,60.90
2022-09-23T16:08:09.965Z,61.90
2022-09-23T16:10:37.635Z,61.10
2022-09-23T16:13:06.903Z,61.20
2022-09-23T16:15:34.191Z,61.40
2022-09-23T16:18:01.759Z,61.30
2022-09-23T16:20:30.327Z,61.50
2022-09-23T16:23:00.694Z,61.70
2022-09-23T16:25:30.104Z,61.90
2022-09-23T16:27:58.138Z,62.00
2022-09-23T16:30:27.202Z,61.90
2022-09-23T16:32:54.630Z,62.10
2022-09-23T16:35:28.103Z,62.20
2022-09-23T16:37:56.002Z,62.40
2022-09-23T16:40:24.040Z,62.40
2022-09-23T16:42:52.517Z,62.60
2022-09-23T16:45:23.065Z,62.70
2022-09-23T16:47:51.243Z,63.10
2022-09-23T16:50:22.758Z,63.20
2022-09-23T16:52:57.324Z,63.40
2022-09-23T16:55:27.373Z,63.60
2022-09-23T16:57:54.972Z,63.90
2022-09-23T17:00:40.803Z,64.00
2022-09-23T17:03:28.513Z,64.30
2022-09-23T17:05:55.523Z,64.50
2022-09-23T17:08:22.283Z,64.70
2022-09-23T17:10:57.103Z,64.90
2022-09-23T17:13:25.433Z,65.20
2022-09-23T17:15:53.334Z,65.40
2022-09-23T17:18:21.528Z,65.70
2022-09-23T17:20:59.443Z,65.90
2022-09-23T17:23:26.997Z,66.00
2022-09-23T17:25:54.142Z,66.20
2022-09-23T17:28:21.712Z,66.40
2022-09-23T17:30:56.053Z,66.70
2022-09-23T17:33:22.942Z,67.10
2022-09-23T17:35:49.869Z,67.10
2022-09-23T17:38:16.585Z,67.10
2022-09-23T17:40:50.816Z,67.30
2022-09-23T17:43:23.618Z,67.60
2022-09-23T17:45:51.043Z,67.70
2022-09-23T17:48:19.480Z,67.70
2022-09-23T17:51:04.137Z,67.80
2022-09-23T17:53:33.078Z,67.80
2022-09-23T17:56:03.480Z,69.00
2022-09-23T17:58:35.231Z,68.10
2022-09-23T18:01:02.627Z,68.20
2022-09-23T18:03:31.257Z,68.40
2022-09-23T18:06:07.484Z,68.70
2022-09-23T18:08:34.654Z,68.90
2022-09-23T18:11:01.588Z,69.00
2022-09-23T18:13:28.902Z,69.20
2022-09-23T18:15:55.688Z,69.50
2022-09-23T18:18:22.507Z,69.60
2022-09-23T18:20:49.357Z,69.70
2022-09-23T18:23:16.146Z,69.70
2022-09-23T18:25:42.866Z,69.90
2022-09-23T18:28:09.712Z,70.00
2022-09-23T18:30:36.422Z,70.20
2022-09-23T18:33:03.513Z,70.30
2022-09-23T18:35:30.683Z,70.60
2022-09-23T18:37:57.748Z,70.80
2022-09-23T18:40:24.625Z,70.90
2022-09-23T18:42:51.389Z,70.90
2022-09-23T18:45:18.120Z,71.00
2022-09-23T18:48:03.205Z,71.20
2022-09-23T18:50:39.467Z,71.30
2022-09-23T18:53:06.268Z,71.40
2022-09-23T18:55:36.534Z,71.40
2022-09-23T18:58:03.393Z,71.60
2022-09-23T19:00:30.438Z,72.50
2022-09-23T19:02:57.721Z,71.70
2022-09-23T19:05:24.455Z,71.80
2022-09-23T19:07:54.469Z,71.90
2022-09-23T19:10:21.528Z,72.00
2022-09-23T19:12:48.315Z,72.10
2022-09-23T19:15:15.168Z,72.10
2022-09-23T19:17:41.894Z,72.10
2022-09-23T19:20:09.308Z,72.20
2022-09-23T19:22:36.033Z,72.30
2022-09-23T19:25:02.806Z,72.50
2022-09-23T19:27:29.577Z,72.40
2022-09-23T19:30:02.367Z,72.40
2022-09-23T19:32:30.070Z,72.60
2022-09-23T19:34:58.530Z,72.70
2022-09-23T19:37:25.263Z,72.70
2022-09-23T19:39:52.011Z,72.70
2022-09-23T19:42:18.682Z,72.90
2022-09-23T19:44:45.364Z,73.00
2022-09-23T19:47:15.642Z,73.10
2022-09-23T19:49:42.399Z,73.20
2022-09-23T19:52:09.205Z,73.40
2022-09-23T19:54:36.272Z,73.50
2022-09-23T19:57:03.080Z,73.60
2022-09-23T19:59:29.884Z,73.60
2022-09-23T20:01:59.372Z,73.80
2022-09-23T20:04:26.254Z,73.90
2022-09-23T20:06:53.108Z,74.10
2022-09-23T20:09:19.967Z,74.10
2022-09-23T20:11:46.721Z,74.20
2022-09-23T20:14:14.027Z,74.20
2022-09-23T20:16:40.778Z,74.40
2022-09-23T20:19:07.697Z,74.50
2022-09-23T20:21:41.222Z,74.60
2022-09-23T20:24:09.547Z,74.80
2022-09-23T20:26:55.061Z,74.80
2022-09-23T20:29:21.762Z,74.90
2022-09-23T20:31:48.595Z,75.10
2022-09-23T20:34:15.441Z,75.30
2022-09-23T20:36:42.629Z,75.20
2022-09-23T20:39:13.056Z,75.30
2022-09-23T20:41:40.485Z,75.50
2022-09-23T20:44:12.240Z,75.60
2022-09-23T20:46:41.972Z,75.80
2022-09-23T20:49:12.196Z,75.80
2022-09-23T20:51:39.923Z,75.90
2022-09-23T20:54:07.472Z,76.00
2022-09-23T20:56:34.360Z,76.00
2022-09-23T20:59:02.340Z,76.20
2022-09-23T21:01:32.216Z,76.20
2022-09-23T21:04:04.677Z,76.10
2022-09-23T21:06:31.472Z,76.10
2022-09-23T21:09:01.352Z,76.20
2022-09-23T21:11:29.164Z,76.20
2022-09-23T21:13:56.547Z,76.30
2022-09-23T21:16:23.995Z,76.30
2022-09-23T21:18:54.029Z,76.40
2022-09-23T21:21:22.303Z,76.50
2022-09-23T21:23:51.688Z,76.60
2022-09-23T21:26:20.927Z,76.60
2022-09-23T21:28:58.764Z,76.60
2022-09-23T21:31:28.291Z,76.70
2022-09-23T21:33:56.349Z,76.80
2022-09-23T21:36:27.484Z,76.80
2022-09-23T21:38:55.563Z,76.80
2022-09-23T21:41:25.593Z,76.90
2022-09-23T21:43:52.487Z,77.90
2022-09-23T21:46:20.977Z,77.00
2022-09-23T21:48:54.393Z,78.00
2022-09-23T21:51:24.227Z,77.30
2022-09-23T21:53:52.503Z,77.30
2022-09-23T21:56:21.125Z,77.30
2022-09-23T21:58:48.885Z,77.40
2022-09-23T22:01:21.491Z,77.50
2022-09-23T22:03:54.139Z,77.50
2022-09-23T22:06:27.153Z,77.70
2022-09-23T22:08:59.280Z,77.60
2022-09-23T22:11:47.213Z,77.70
2022-09-23T22:14:15.775Z,77.80
2022-09-23T22:16:42.919Z,77.80
2022-09-23T22:19:11.630Z,77.80
2022-09-23T22:21:40.723Z,77.90
2022-09-23T22:24:09.455Z,78.00
2022-09-23T22:26:41.658Z,78.00
2022-09-23T22:29:32.143Z,78.20
2022-09-23T22:32:18.675Z,78.20
2022-09-23T22:34:51.899Z,78.10
2022-09-23T22:37:21.508Z,78.20
2022-09-23T22:39:48.297Z,78.20
2022-09-23T22:42:15.023Z,78.30
2022-09-23T22:44:42.230Z,78.40
2022-09-23T22:47:10.461Z,78.40
2022-09-23T22:49:37.336Z,78.50
2022-09-23T22:52:08.495Z,78.60
2022-09-23T22:54:36.108Z,78.70
2022-09-23T22:57:07.468Z,78.70
2022-09-23T22:59:35.333Z,78.80
2022-09-23T23:02:02.983Z,78.80
2022-09-23T23:04:31.038Z,78.80
2022-09-23T23:06:58.744Z,79.00
2022-09-23T23:09:25.955Z,79.00
2022-09-23T23:11:52.812Z,79.10
2022-09-23T23:14:19.857Z,79.20
2022-09-23T23:16:46.731Z,79.20
2022-09-23T23:19:19.391Z,79.20
2022-09-23T23:21:46.241Z,79.30
2022-09-23T23:24:21.512Z,79.30
2022-09-23T23:26:49.053Z,79.50
2022-09-23T23:29:18.622Z,79.50
2022-09-23T23:31:45.897Z,79.50
2022-09-23T23:34:17.710Z,79.60
2022-09-23T23:36:45.671Z,79.50
2022-09-23T23:39:13.591Z,79.50
2022-09-23T23:41:41.539Z,79.60
2022-09-23T23:44:11.485Z,79.60
2022-09-23T23:46:38.189Z,79.70
2022-09-23T23:49:05.163Z,79.70
2022-09-23T23:51:32.309Z,79.70
2022-09-23T23:53:59.901Z,79.70
2022-09-23T23:56:27.557Z,79.80
2022-09-23T23:58:55.896Z,79.90
